Time;durP1;ratioP1;P1;durP2;ratioP2;P2;SDS_P1;SDS_P2;PMS_P1;PMS_P2;Temp;Humidity;BMP_temperature;BMP_pressure;BME280_temperature;BME280_humidity;BME280_pressure;Samples;Min_cycle;Max_cycle;Signal;HPM_P1;HPM_P2
2022/11/29 00:01:05;;;;;;;14.60;13.20;;;10.10;99.90;;;;;;5035897;28;20400;-71
2022/11/29 00:03:32;;;;;;;16.60;15.00;;;10.20;99.90;;;;;;5037159;28;20452;-72
2022/11/29 00:06:04;;;;;;;14.00;12.47;;;10.10;99.90;;;;;;5035571;28;20420;-72
2022/11/29 00:08:30;;;;;;;13.37;12.07;;;10.00;99.90;;;;;;5037190;28;20396;-72
2022/11/29 00:10:55;;;;;;;15.23;13.60;;;10.00;99.90;;;;;;5037171;28;20434;-72
2022/11/29 00:13:21;;;;;;;14.33;12.93;;;10.00;99.90;;;;;;5036750;28;20184;-72
2022/11/29 00:15:46;;;;;;;12.87;11.67;;;10.00;99.90;;;;;;5037087;28;20631;-71
2022/11/29 00:18:13;;;;;;;14.30;12.80;;;10.10;99.90;;;;;;5036838;28;20254;-72
2022/11/29 00:20:39;;;;;;;15.90;14.30;;;10.10;99.90;;;;;;5035477;28;20208;-72
2022/11/29 00:23:04;;;;;;;17.70;15.80;;;10.20;99.90;;;;;;5035356;28;20987;-71
2022/11/29 00:25:30;;;;;;;13.10;11.80;;;10.10;99.90;;;;;;5036962;28;20171;-72
2022/11/29 00:27:56;;;;;;;13.83;12.50;;;10.20;99.90;;;;;;5036239;28;20718;-71
2022/11/29 00:30:21;;;;;;;17.67;15.87;;;10.20;99.90;;;;;;5042344;28;20538;-72
2022/11/29 00:32:47;;;;;;;12.07;10.97;;;10.20;99.90;;;;;;5040690;28;20252;-72
2022/11/29 00:35:13;;;;;;;13.90;12.53;;;10.20;99.90;;;;;;5035172;28;20725;-72
2022/11/29 00:37:38;;;;;;;13.27;11.80;;;10.10;99.90;;;;;;5036808;28;20215;-72
2022/11/29 00:40:05;;;;;;;13.10;11.90;;;10.20;99.90;;;;;;5037748;28;20171;-72
2022/11/29 00:42:31;;;;;;;13.87;12.57;;;10.20;99.90;;;;;;5037151;28;20177;-72
2022/11/29 00:44:56;;;;;;;14.27;12.97;;;10.20;99.90;;;;;;5036921;28;20402;-72
2022/11/29 00:47:22;;;;;;;13.70;12.40;;;10.20;99.90;;;;;;5036641;28;20426;-71
2022/11/29 00:49:47;;;;;;;15.27;13.80;;;10.30;99.90;;;;;;5036115;28;20313;-72
2022/11/29 00:52:13;;;;;;;13.90;12.43;;;10.30;99.90;;;;;;5048697;28;20205;-72
2022/11/29 00:54:38;;;;;;;10.87;9.87;;;10.30;99.90;;;;;;5055530;28;20179;-72
2022/11/29 00:57:04;;;;;;;11.90;10.70;;;10.30;99.90;;;;;;5056151;28;20549;-72
2022/11/29 00:59:30;;;;;;;12.73;11.47;;;10.30;99.90;;;;;;5052749;28;20181;-72
2022/11/29 01:01:55;;;;;;;11.70;10.70;;;10.30;99.90;;;;;;5055523;28;20171;-72
2022/11/29 01:04:21;;;;;;;12.30;11.07;;;10.30;99.90;;;;;;5055455;28;20190;-72
2022/11/29 01:06:50;;;;;;;13.13;11.87;;;10.30;99.90;;;;;;5055539;28;20226;-72
2022/11/29 01:09:16;;;;;;;12.60;11.30;;;10.30;99.90;;;;;;5053421;28;20238;-72
2022/11/29 01:11:42;;;;;;;11.63;10.47;;;10.30;99.90;;;;;;5034505;28;20456;-72
2022/11/29 01:14:07;;;;;;;10.83;9.73;;;10.30;99.90;;;;;;5035246;28;20179;-72
2022/11/29 01:16:33;;;;;;;12.10;10.87;;;10.30;99.90;;;;;;5035308;28;20185;-71
2022/11/29 01:18:59;;;;;;;11.47;10.40;;;10.30;99.90;;;;;;5035689;28;20174;-72
2022/11/29 01:21:25;;;;;;;12.57;11.37;;;10.30;99.90;;;;;;5035349;28;20167;-72
2022/11/29 01:23:53;;;;;;;11.43;10.37;;;10.20;99.90;;;;;;5033890;28;20665;-72
2022/11/29 01:26:24;;;;;;;11.23;10.20;;;10.20;99.90;;;;;;5035222;28;20211;-72
2022/11/29 01:28:51;;;;;;;14.07;12.80;;;10.30;99.90;;;;;;5035284;28;20397;-72
2022/11/29 01:31:23;;;;;;;11.63;10.50;;;10.20;99.90;;;;;;5034989;28;20487;-72
2022/11/29 01:33:53;;;;;;;11.90;10.70;;;10.30;99.90;;;;;;5033677;28;20502;-71
2022/11/29 01:36:19;;;;;;;15.13;13.70;;;10.20;99.90;;;;;;5033817;28;20458;-71
2022/11/29 01:38:45;;;;;;;15.90;13.90;;;10.20;99.90;;;;;;5034853;28;20407;-72
2022/11/29 01:41:19;;;;;;;11.63;10.53;;;10.30;99.90;;;;;;5034795;28;20251;-72
2022/11/29 01:43:57;;;;;;;11.80;10.70;;;10.30;99.90;;;;;;5033481;28;20165;-72
2022/11/29 01:46:23;;;;;;;10.77;9.77;;;10.30;99.90;;;;;;5034691;28;20978;-72
2022/11/29 01:48:50;;;;;;;10.00;9.00;;;10.30;99.90;;;;;;5034795;28;20451;-72
2022/11/29 01:51:16;;;;;;;10.37;9.40;;;10.30;99.90;;;;;;5035282;28;20260;-71
2022/11/29 01:53:42;;;;;;;12.93;11.63;;;10.30;99.90;;;;;;5035368;28;20900;-73
2022/11/29 01:56:09;;;;;;;11.67;10.50;;;10.30;99.90;;;;;;5036390;28;20580;-71
2022/11/29 01:58:35;;;;;;;11.60;10.57;;;10.30;99.90;;;;;;5036610;28;20239;-72
2022/11/29 02:01:01;;;;;;;12.93;11.80;;;10.40;99.90;;;;;;5036231;28;20410;-72
2022/11/29 02:03:26;;;;;;;11.37;10.37;;;10.40;99.90;;;;;;5034563;28;20883;-72
2022/11/29 02:05:53;;;;;;;10.80;9.80;;;10.40;99.90;;;;;;5035525;28;20187;-72
2022/11/29 02:08:28;;;;;;;10.90;9.30;;;10.30;99.90;;;;;;5035425;28;20179;-73
2022/11/29 02:11:16;;;;;;;12.03;10.30;;;10.40;99.90;;;;;;5035831;28;20535;-71
2022/11/29 02:13:50;;;;;;;12.40;11.20;;;10.30;99.90;;;;;;5035579;28;20396;-72
2022/11/29 02:16:23;;;;;;;10.40;9.40;;;10.30;99.90;;;;;;5034224;28;20427;-72
2022/11/29 02:19:10;;;;;;;12.67;11.37;;;10.30;99.90;;;;;;5034505;28;20497;-72
2022/11/29 02:21:36;;;;;;;10.93;10.00;;;10.30;99.90;;;;;;5033866;28;20751;-72
2022/11/29 02:24:45;;;;;;;10.03;8.77;;;10.30;99.90;;;;;;5033626;28;20452;-72
2022/11/29 02:27:38;;;;;;;9.53;8.70;;;10.20;99.90;;;;;;5033257;28;20203;-72
2022/11/29 02:30:04;;;;;;;11.07;10.00;;;10.30;99.90;;;;;;5033929;28;20396;-72
2022/11/29 02:33:08;;;;;;;10.30;9.30;;;10.30;99.90;;;;;;5033901;28;20505;-72
2022/11/29 02:35:51;;;;;;;11.13;10.00;;;10.30;99.90;;;;;;5036737;28;20179;-72
2022/11/29 02:38:38;;;;;;;11.37;10.37;;;10.20;99.90;;;;;;5037522;28;20847;-71
2022/11/29 02:41:41;;;;;;;10.53;9.57;;;10.30;99.90;;;;;;5033630;28;20427;-71
2022/11/29 02:44:15;;;;;;;10.23;9.23;;;10.30;99.90;;;;;;5034062;28;20402;-71
2022/11/29 02:47:03;;;;;;;10.37;9.37;;;10.30;99.90;;;;;;5037990;28;20444;-71
2022/11/29 02:49:40;;;;;;;13.50;12.20;;;10.30;99.90;;;;;;5053466;28;20485;-71
2022/11/29 02:52:19;;;;;;;11.50;10.40;;;10.30;99.90;;;;;;5051942;28;20834;-71
2022/11/29 02:55:10;;;;;;;16.63;12.10;;;10.40;99.90;;;;;;5053369;28;20409;-71
2022/11/29 02:57:58;;;;;;;13.57;12.27;;;10.40;99.90;;;;;;5053497;28;20457;-71
2022/11/29 03:00:24;;;;;;;12.47;9.67;;;10.30;99.90;;;;;;5053360;28;20389;-71
2022/11/29 03:02:50;;;;;;;13.07;11.67;;;10.30;99.90;;;;;;5053349;28;20399;-71
2022/11/29 03:05:15;;;;;;;10.70;9.63;;;10.30;99.90;;;;;;5052094;28;20185;-72
2022/11/29 03:07:47;;;;;;;14.03;12.60;;;10.40;99.90;;;;;;5052812;28;20186;-71
2022/11/29 03:10:31;;;;;;;11.17;10.07;;;10.30;99.90;;;;;;5053162;28;20615;-71
2022/11/29 03:12:58;;;;;;;9.30;8.50;;;10.40;99.90;;;;;;5053480;28;20912;-71
2022/11/29 03:15:32;;;;;;;11.40;10.37;;;10.30;99.90;;;;;;5053328;28;20438;-71
2022/11/29 03:18:39;;;;;;;10.00;9.00;;;10.40;99.90;;;;;;5053013;28;20428;-71
2022/11/29 03:21:43;;;;;;;8.00;7.30;;;10.40;99.90;;;;;;5032111;28;20409;-70
2022/11/29 03:24:24;;;;;;;8.97;8.17;;;10.40;99.90;;;;;;5043390;28;20961;-70
2022/11/29 03:27:00;;;;;;;8.23;7.53;;;10.40;99.90;;;;;;5032753;28;20436;-70
2022/11/29 03:29:36;;;;;;;9.10;8.30;;;10.30;99.90;;;;;;5033736;28;20474;-71
2022/11/29 03:32:11;;;;;;;8.37;7.57;;;10.30;99.90;;;;;;5032988;28;20433;-72
2022/11/29 03:34:55;;;;;;;8.27;7.50;;;10.30;99.90;;;;;;5032984;28;20813;-72
2022/11/29 03:37:32;;;;;;;8.20;7.40;;;10.40;99.90;;;;;;5055630;23;20494;-72
2022/11/29 03:40:10;;;;;;;7.83;7.03;;;10.30;99.90;;;;;;5031972;28;20739;-72
2022/11/29 03:42:55;;;;;;;9.50;8.60;;;10.30;99.90;;;;;;5032158;28;20466;-72
2022/11/29 03:45:24;;;;;;;10.00;8.87;;;10.30;99.90;;;;;;5032510;28;20892;-72
2022/11/29 03:48:10;;;;;;;8.87;7.97;;;10.30;99.90;;;;;;5032549;28;20416;-72
2022/11/29 03:50:45;;;;;;;8.77;7.87;;;10.30;99.90;;;;;;5032196;28;20442;-72
2022/11/29 03:53:19;;;;;;;7.97;7.27;;;10.30;99.90;;;;;;5032166;28;20918;-72
2022/11/29 03:55:50;;;;;;;9.73;7.80;;;10.40;99.90;;;;;;5015540;28;20426;-71
2022/11/29 03:58:29;;;;;;;7.77;7.07;;;10.30;99.90;;;;;;5001394;28;20437;-72
2022/11/29 04:01:08;;;;;;;8.80;7.90;;;10.30;99.90;;;;;;5032355;28;20485;-72
2022/11/29 04:04:11;;;;;;;7.60;6.60;;;10.30;99.90;;;;;;5031999;28;20442;-72
2022/11/29 04:07:03;;;;;;;7.77;7.07;;;10.30;99.90;;;;;;5022257;28;20450;-72
2022/11/29 04:09:39;;;;;;;8.63;7.93;;;10.20;99.90;;;;;;5012509;28;20441;-72
2022/11/29 04:12:35;;;;;;;9.70;8.77;;;10.20;99.90;;;;;;5012303;28;20949;-72
2022/11/29 04:15:42;;;;;;;9.20;8.30;;;10.20;99.90;;;;;;5012146;28;20451;-72
2022/11/29 04:18:19;;;;;;;9.90;8.90;;;10.20;99.90;;;;;;5012214;28;20425;-73
2022/11/29 04:21:00;;;;;;;7.97;7.13;;;10.30;99.90;;;;;;5012264;28;20794;-73
2022/11/29 04:23:39;;;;;;;7.80;7.00;;;10.30;99.90;;;;;;5012398;28;20737;-72
2022/11/29 04:26:14;;;;;;;8.53;7.63;;;10.30;99.90;;;;;;5010585;28;20424;-73
2022/11/29 04:29:00;;;;;;;8.27;7.57;;;10.30;99.90;;;;;;5012177;28;20742;-72
2022/11/29 04:31:32;;;;;;;8.23;7.43;;;10.30;99.90;;;;;;5011710;28;20576;-73
2022/11/29 04:33:57;;;;;;;10.17;9.20;;;10.30;99.90;;;;;;5011951;28;20415;-73
2022/11/29 04:36:47;;;;;;;7.50;6.90;;;10.30;99.90;;;;;;5011034;28;20427;-73
2022/11/29 04:39:36;;;;;;;7.10;6.40;;;10.40;99.90;;;;;;5011861;28;20262;-73
2022/11/29 04:42:25;;;;;;;8.90;8.00;;;10.30;99.90;;;;;;5011678;28;20873;-73
2022/11/29 04:45:27;;;;;;;9.80;8.83;;;10.30;99.90;;;;;;4994277;28;20436;-73
2022/11/29 04:48:02;;;;;;;9.27;8.27;;;10.30;99.90;;;;;;5014552;28;20895;-72
2022/11/29 04:50:55;;;;;;;8.87;7.97;;;10.30;99.90;;;;;;5015703;28;20394;-72
2022/11/29 04:53:49;;;;;;;7.73;7.13;;;10.40;99.90;;;;;;5015786;28;20487;-75
2022/11/29 04:56:23;;;;;;;7.40;6.70;;;10.30;99.90;;;;;;5014711;28;20393;-74
2022/11/29 04:59:08;;;;;;;7.53;6.93;;;10.40;99.90;;;;;;5013911;28;20460;-73
2022/11/29 05:01:46;;;;;;;7.73;6.20;;;10.40;99.90;;;;;;5014911;28;20767;-72
2022/11/29 05:04:52;;;;;;;8.10;6.90;;;10.40;99.90;;;;;;5015255;28;20387;-73
2022/11/29 05:07:42;;;;;;;7.83;7.13;;;10.50;99.90;;;;;;4966585;28;20828;-73
2022/11/29 05:10:38;;;;;;;9.13;8.23;;;10.50;99.90;;;;;;4997219;28;20417;-73
2022/11/29 05:13:17;;;;;;;6.90;6.30;;;10.40;99.90;;;;;;5014158;28;20428;-72
2022/11/29 05:16:10;;;;;;;8.17;6.37;;;10.40;99.90;;;;;;5015385;28;20721;-72
2022/11/29 05:19:35;;;;;;;6.00;5.40;;;10.40;99.90;;;;;;5015529;28;20395;-72
2022/11/29 05:22:31;;;;;;;6.90;6.30;;;10.40;99.90;;;;;;4921538;29;20436;-72
2022/11/29 05:25:18;;;;;;;7.03;6.33;;;10.40;99.90;;;;;;4935070;29;20411;-72
2022/11/29 05:27:49;;;;;;;8.17;7.37;;;10.40;99.90;;;;;;4996298;28;20529;-73
2022/11/29 05:30:23;;;;;;;9.00;7.10;;;10.40;99.90;;;;;;5024825;28;20494;-73
2022/11/29 05:33:02;;;;;;;6.20;5.60;;;10.40;99.90;;;;;;5014303;28;20789;-71
2022/11/29 05:35:46;;;;;;;6.00;5.50;;;10.40;99.90;;;;;;5014370;28;20396;-74
2022/11/29 05:38:37;;;;;;;6.00;5.40;;;10.30;99.90;;;;;;5014168;28;20439;-74
2022/11/29 05:41:41;;;;;;;5.83;5.33;;;10.20;99.90;;;;;;5013400;28;20440;-71
2022/11/29 05:44:31;;;;;;;8.73;6.47;;;10.20;99.90;;;;;;5014163;28;20450;-74
2022/11/29 05:47:00;;;;;;;8.10;6.00;;;10.20;99.90;;;;;;5014141;28;20419;-75
2022/11/29 05:50:06;;;;;;;5.70;5.20;;;10.30;99.90;;;;;;5014501;28;20911;-74
2022/11/29 05:52:46;;;;;;;6.00;5.50;;;10.40;99.90;;;;;;5014323;28;20929;-74
2022/11/29 05:55:45;;;;;;;5.67;5.17;;;10.50;99.90;;;;;;5014146;28;20391;-74
2022/11/29 05:58:31;;;;;;;5.33;4.83;;;10.50;99.90;;;;;;5012912;28;20514;-73
2022/11/29 06:01:18;;;;;;;6.23;5.63;;;10.40;99.90;;;;;;4996949;28;20487;-73
2022/11/29 06:03:59;;;;;;;5.90;5.23;;;10.50;99.90;;;;;;5014789;28;20478;-74
2022/11/29 06:06:30;;;;;;;5.20;4.70;;;10.50;99.90;;;;;;5013920;28;20400;-74
2022/11/29 06:09:11;;;;;;;5.40;4.90;;;10.40;99.90;;;;;;5013958;28;20393;-74
2022/11/29 06:11:43;;;;;;;5.73;5.23;;;10.50;99.90;;;;;;5014175;28;20911;-73
2022/11/29 06:14:54;;;;;;;4.67;4.37;;;10.50;99.90;;;;;;5013882;28;20808;-74
2022/11/29 06:17:57;;;;;;;5.10;4.70;;;10.50;99.90;;;;;;4996248;28;20757;-74
2022/11/29 06:20:41;;;;;;;3.77;3.27;;;10.50;99.90;;;;;;5014201;28;20443;-73
2022/11/29 06:23:51;;;;;;;4.93;4.47;;;10.40;99.90;;;;;;5014280;28;20403;-73
2022/11/29 06:26:46;;;;;;;5.47;4.97;;;10.40;99.90;;;;;;5014061;28;20469;-72
2022/11/29 06:29:22;;;;;;;5.10;4.60;;;10.40;99.90;;;;;;5013467;28;20415;-72
2022/11/29 06:31:56;;;;;;;6.83;6.13;;;10.30;99.90;;;;;;5013791;28;20441;-72
2022/11/29 06:34:53;;;;;;;5.33;4.83;;;10.10;99.90;;;;;;5014195;28;20813;-72
2022/11/29 06:37:50;;;;;;;4.90;4.50;;;10.30;99.90;;;;;;5007088;28;20471;-72
2022/11/29 06:40:16;;;;;;;5.60;5.10;;;10.30;99.90;;;;;;5013778;28;20496;-73
2022/11/29 06:42:42;;;;;;;4.73;4.33;;;10.40;99.90;;;;;;5012900;28;20411;-72
2022/11/29 06:45:11;;;;;;;5.13;4.63;;;10.40;99.90;;;;;;5012509;28;20481;-72
2022/11/29 06:47:56;;;;;;;5.70;5.20;;;10.10;99.90;;;;;;5013301;28;20188;-73
2022/11/29 06:50:44;;;;;;;15.40;12.97;;;10.10;99.90;;;;;;5013578;28;20390;-73
2022/11/29 06:53:14;;;;;;;24.87;22.20;;;10.10;99.90;;;;;;5024102;28;20417;-73
2022/11/29 06:55:54;;;;;;;9.10;8.20;;;10.20;99.90;;;;;;5025748;28;20900;-72
2022/11/29 06:58:22;;;;;;;9.57;8.67;;;10.10;99.90;;;;;;5012744;28;20456;-73
2022/11/29 07:01:22;;;;;;;11.23;10.20;;;10.10;99.90;;;;;;4995367;28;20435;-73
2022/11/29 07:04:10;;;;;;;17.43;15.73;;;10.20;99.90;;;;;;5013427;28;20432;-72
2022/11/29 07:06:37;;;;;;;8.33;7.53;;;10.30;99.90;;;;;;4998658;28;20554;-72
2022/11/29 07:09:13;;;;;;;6.87;6.23;;;10.20;99.90;;;;;;5012408;28;20445;-73
2022/11/29 07:11:39;;;;;;;14.43;13.00;;;10.20;99.90;;;;;;4995180;28;20446;-72
2022/11/29 07:14:05;;;;;;;21.70;19.37;;;10.30;99.90;;;;;;5012643;28;20423;-72
2022/11/29 07:16:41;;;;;;;8.00;7.30;;;10.30;99.90;;;;;;5012724;28;20949;-74
2022/11/29 07:19:30;;;;;;;7.63;6.23;;;10.20;99.90;;;;;;5012594;28;20880;-72
2022/11/29 07:22:18;;;;;;;14.37;12.90;;;9.80;99.90;;;;;;4995044;28;20407;-72
2022/11/29 07:25:01;;;;;;;12.73;11.40;;;9.70;99.90;;;;;;5012720;28;20453;-72
2022/11/29 07:27:54;;;;;;;12.03;10.83;;;9.80;99.90;;;;;;5011717;28;20432;-73
2022/11/29 07:30:48;;;;;;;11.20;7.40;;;9.70;99.90;;;;;;4995066;28;20456;-72
2022/11/29 07:33:24;;;;;;;9.23;7.73;;;9.70;99.90;;;;;;5012416;28;20391;-73
2022/11/29 07:36:10;;;;;;;8.50;7.67;;;9.80;99.90;;;;;;5012619;28;20778;-72
2022/11/29 07:39:02;;;;;;;7.60;6.83;;;9.80;99.90;;;;;;5013081;28;20486;-73
2022/11/29 07:41:51;;;;;;;7.43;6.73;;;9.60;99.90;;;;;;5012680;28;20477;-73
2022/11/29 07:44:20;;;;;;;7.57;6.73;;;9.70;99.90;;;;;;5011572;28;20384;-74
2022/11/29 07:46:46;;;;;;;9.10;6.50;;;9.80;99.90;;;;;;5013656;28;21005;-73
2022/11/29 07:49:11;;;;;;;7.33;6.73;;;9.70;99.90;;;;;;5012617;28;20406;-73
2022/11/29 07:51:37;;;;;;;6.80;6.20;;;9.70;99.90;;;;;;5010980;28;20574;-74
2022/11/29 07:54:04;;;;;;;7.17;6.50;;;9.70;99.90;;;;;;5013095;28;20179;-73
2022/11/29 07:56:29;;;;;;;7.87;7.27;;;9.80;99.90;;;;;;5012271;28;20495;-72
2022/11/29 07:58:55;;;;;;;8.40;7.60;;;9.70;99.90;;;;;;5011247;28;20484;-73
2022/11/29 08:01:20;;;;;;;8.60;7.60;;;9.80;99.90;;;;;;5012474;28;20179;-73
2022/11/29 08:03:46;;;;;;;8.00;7.20;;;9.90;99.90;;;;;;5011674;28;20187;-74
2022/11/29 08:06:12;;;;;;;11.03;9.50;;;10.00;99.90;;;;;;5012261;28;20247;-74
2022/11/29 08:08:37;;;;;;;7.10;6.10;;;10.10;99.90;;;;;;5012801;28;20614;-74
2022/11/29 08:11:09;;;;;;;6.73;6.13;;;10.10;99.90;;;;;;5012327;28;20207;-74
2022/11/29 08:13:35;;;;;;;8.17;7.20;;;10.20;99.90;;;;;;4993730;28;20175;-74
2022/11/29 08:16:00;;;;;;;7.50;6.80;;;10.00;99.90;;;;;;5012563;28;20562;-73
2022/11/29 08:18:26;;;;;;;7.03;6.40;;;9.70;99.90;;;;;;5013985;28;20318;-73
2022/11/29 08:20:51;;;;;;;6.47;5.90;;;9.80;99.90;;;;;;5015769;28;20189;-74
2022/11/29 08:23:17;;;;;;;6.30;5.80;;;9.80;99.90;;;;;;5024608;28;20276;-73
2022/11/29 08:25:44;;;;;;;7.60;7.00;;;9.80;99.90;;;;;;5016365;28;20195;-74
2022/11/29 08:28:10;;;;;;;7.30;6.60;;;9.90;99.90;;;;;;5006476;28;20291;-74
2022/11/29 08:30:36;;;;;;;6.63;6.03;;;10.00;99.90;;;;;;5035592;28;20454;-74
2022/11/29 08:33:01;;;;;;;6.20;5.70;;;9.90;99.90;;;;;;5035656;28;20176;-74
2022/11/29 08:35:27;;;;;;;7.00;6.30;;;9.80;99.90;;;;;;5036641;28;20509;-74
2022/11/29 08:37:54;;;;;;;6.20;5.60;;;9.70;99.90;;;;;;5036319;28;20301;-74
2022/11/29 08:40:19;;;;;;;5.93;5.43;;;9.80;99.90;;;;;;5035480;28;20171;-73
2022/11/29 08:42:45;;;;;;;7.27;6.40;;;9.60;99.90;;;;;;5017875;28;20997;-73
2022/11/29 08:45:11;;;;;;;6.50;5.87;;;9.70;99.90;;;;;;5024637;28;20667;-73
2022/11/29 08:47:37;;;;;;;5.73;5.13;;;9.80;99.90;;;;;;5015513;28;20246;-74
2022/11/29 08:50:13;;;;;;;8.73;5.40;;;9.80;99.90;;;;;;5015353;28;20172;-73
2022/11/29 08:55:38;;;;;;;6.40;5.90;;;10.00;99.90;;;;;;5015512;28;20752;-75
2022/11/29 08:58:07;;;;;;;5.97;5.47;;;10.00;99.90;;;;;;5014755;28;20430;-74
2022/11/29 09:00:33;;;;;;;4.97;4.57;;;10.00;99.90;;;;;;5014265;28;20472;-75
2022/11/29 09:05:45;;;;;;;5.50;4.30;;;9.80;99.90;;;;;;5016394;28;20432;-74
2022/11/29 09:08:11;;;;;;;4.43;4.00;;;9.80;99.90;;;;;;5015643;28;20447;-75
2022/11/29 09:10:39;;;;;;;4.60;4.20;;;9.80;99.90;;;;;;5023990;28;20254;-74
2022/11/29 09:13:06;;;;;;;4.87;4.47;;;9.90;99.90;;;;;;5016127;28;20206;-74
2022/11/29 09:15:31;;;;;;;5.80;4.60;;;10.00;99.90;;;;;;5018260;28;20501;-75
2022/11/29 09:17:57;;;;;;;9.57;4.80;;;9.90;99.90;;;;;;5034616;28;20509;-74
2022/11/29 09:20:23;;;;;;;5.67;5.07;;;9.90;99.90;;;;;;5034617;28;20228;-74
2022/11/29 09:22:48;;;;;;;5.40;4.47;;;9.70;99.90;;;;;;5034866;28;20181;-75
2022/11/29 09:25:14;;;;;;;6.70;4.60;;;9.80;99.90;;;;;;5017146;28;20176;-76
2022/11/29 09:27:40;;;;;;;5.80;5.30;;;9.90;99.90;;;;;;5032120;28;20187;-75
2022/11/29 09:30:08;;;;;;;6.23;5.63;;;9.80;99.90;;;;;;5014903;28;20173;-75
2022/11/29 09:32:34;;;;;;;7.17;6.30;;;9.70;99.90;;;;;;5014193;28;20449;-75
2022/11/29 09:35:00;;;;;;;6.70;6.10;;;9.60;99.90;;;;;;5013802;28;20435;-75
2022/11/29 09:37:25;;;;;;;6.13;5.53;;;9.70;99.90;;;;;;5015778;28;20451;-75
2022/11/29 09:39:51;;;;;;;8.17;6.33;;;9.60;99.90;;;;;;5016550;28;20206;-75
2022/11/29 09:42:22;;;;;;;7.47;6.67;;;9.70;99.90;;;;;;5014101;28;20181;-74
2022/11/29 09:44:52;;;;;;;7.60;6.80;;;9.60;99.90;;;;;;5013670;28;20176;-74
2022/11/29 09:47:56;;;;;;;9.00;8.10;;;9.40;99.90;;;;;;5014062;28;20536;-76
2022/11/29 09:50:43;;;;;;;12.07;10.83;;;9.50;99.90;;;;;;5014567;28;20461;-74
2022/11/29 09:53:22;;;;;;;8.43;7.37;;;9.60;99.90;;;;;;5013770;28;20437;-73
2022/11/29 09:55:57;;;;;;;8.80;7.90;;;9.60;99.90;;;;;;5014556;28;20380;-75
2022/11/29 09:58:28;;;;;;;8.97;8.03;;;9.60;99.90;;;;;;5013095;28;20424;-75
2022/11/29 10:01:04;;;;;;;9.93;8.30;;;9.60;99.90;;;;;;5014209;28;20976;-75
2022/11/29 10:03:38;;;;;;;10.60;8.80;;;9.40;99.90;;;;;;4996406;28;20395;-75
2022/11/29 10:06:18;;;;;;;11.13;8.93;;;9.40;99.90;;;;;;5014860;28;20482;-74
2022/11/29 10:09:07;;;;;;;12.03;9.20;;;9.20;99.90;;;;;;5014356;28;20404;-75
2022/11/29 10:11:38;;;;;;;12.40;10.77;;;9.20;99.90;;;;;;5014233;28;20435;-73
2022/11/29 10:14:19;;;;;;;12.37;9.30;;;9.20;99.90;;;;;;5013735;28;20392;-74
2022/11/29 10:16:52;;;;;;;11.57;9.87;;;9.40;99.90;;;;;;5014131;28;20423;-74
2022/11/29 10:19:20;;;;;;;13.77;10.50;;;9.30;99.90;;;;;;5016172;28;20883;-72
2022/11/29 10:21:57;;;;;;;13.33;11.13;;;9.30;99.90;;;;;;5014426;28;20420;-73
2022/11/29 10:24:25;;;;;;;18.17;13.50;;;9.30;99.90;;;;;;5013428;28;20402;-73
2022/11/29 10:26:52;;;;;;;15.33;13.70;;;9.20;99.90;;;;;;5013954;28;20431;-74
2022/11/29 10:29:17;;;;;;;17.63;14.17;;;9.10;99.90;;;;;;5012600;28;20426;-73
2022/11/29 10:31:48;;;;;;;19.17;15.20;;;9.20;99.90;;;;;;5013372;28;21035;-73
2022/11/29 10:34:19;;;;;;;16.47;14.00;;;9.30;99.90;;;;;;5013732;28;20161;-73
2022/11/29 10:36:58;;;;;;;14.87;11.73;;;9.30;99.90;;;;;;5013553;28;20440;-74
2022/11/29 10:39:39;;;;;;;15.07;12.47;;;9.30;99.90;;;;;;5014690;28;20407;-74
2022/11/29 10:42:47;;;;;;;22.67;16.80;;;9.40;99.90;;;;;;5013514;28;20399;-74
2022/11/29 10:44:58;;;;;;;15.20;13.60;;;9.60;99.90;;;;;;5011961;28;20426;-75
2022/11/29 10:47:24;;;;;;;23.67;17.53;;;9.60;99.90;;;;;;5014146;28;20450;-74
2022/11/29 10:49:50;;;;;;;13.33;11.93;;;9.40;99.90;;;;;;5013924;28;20410;-73
2022/11/29 10:52:19;;;;;;;14.67;13.13;;;9.30;99.90;;;;;;5016845;28;20193;-73
2022/11/29 10:54:48;;;;;;;14.37;12.77;;;9.30;99.90;;;;;;5014469;28;20167;-73
2022/11/29 10:57:16;;;;;;;12.87;11.27;;;9.20;99.90;;;;;;5013954;28;20423;-74
2022/11/29 10:59:58;;;;;;;15.30;11.90;;;9.10;99.90;;;;;;4996050;28;20407;-73
2022/11/29 11:02:24;;;;;;;13.73;12.33;;;9.00;99.90;;;;;;5013879;28;20441;-73
2022/11/29 11:04:50;;;;;;;12.33;11.10;;;9.00;99.90;;;;;;5014149;28;20911;-74
2022/11/29 11:07:28;;;;;;;14.20;11.23;;;9.10;99.90;;;;;;5013368;28;20577;-74
2022/11/29 11:09:56;;;;;;;15.00;12.30;;;9.50;99.90;;;;;;5019573;28;20244;-74
2022/11/29 11:12:26;;;;;;;31.27;27.87;;;9.60;99.90;;;;;;5032737;28;20449;-73
2022/11/29 11:15:12;;;;;;;19.13;17.23;;;9.50;99.90;;;;;;5032544;28;20497;-73
2022/11/29 11:17:41;;;;;;;14.27;11.87;;;9.70;99.90;;;;;;5032717;28;20472;-73
2022/11/29 11:20:20;;;;;;;14.13;11.47;;;9.80;99.90;;;;;;5032494;28;20404;-73
2022/11/29 11:23:03;;;;;;;9.30;8.40;;;10.00;99.90;;;;;;5032851;28;20474;-73
2022/11/29 11:25:39;;;;;;;13.70;9.27;;;9.90;99.90;;;;;;5032169;28;20402;-74
2022/11/29 11:28:20;;;;;;;14.13;11.37;;;9.80;99.90;;;;;;5032467;28;20425;-74
2022/11/29 11:31:00;;;;;;;12.20;10.37;;;9.90;99.90;;;;;;5019330;28;20433;-73
2022/11/29 11:33:30;;;;;;;12.00;10.00;;;9.80;99.90;;;;;;5013004;28;20399;-73
2022/11/29 11:36:10;;;;;;;15.30;12.37;;;9.80;99.90;;;;;;5011735;28;20813;-73
2022/11/29 11:38:39;;;;;;;14.30;11.10;;;9.90;99.90;;;;;;5012048;28;20404;-73
2022/11/29 11:41:20;;;;;;;11.93;10.73;;;9.80;99.90;;;;;;5012906;28;20467;-73
2022/11/29 11:43:56;;;;;;;11.17;10.03;;;9.80;99.90;;;;;;5012710;28;20410;-73
2022/11/29 11:46:22;;;;;;;11.33;10.20;;;9.60;99.90;;;;;;4994806;28;20538;-74
2022/11/29 11:48:50;;;;;;;12.60;10.50;;;9.60;99.90;;;;;;5012854;28;20415;-74
2022/11/29 11:51:24;;;;;;;12.80;11.10;;;9.50;99.90;;;;;;5012121;28;20818;-73
2022/11/29 11:53:55;;;;;;;12.77;11.50;;;9.40;99.90;;;;;;5012290;28;20376;-73
2022/11/29 11:56:22;;;;;;;13.63;11.60;;;9.30;99.90;;;;;;5014210;28;20384;-73
2022/11/29 11:58:55;;;;;;;13.33;11.93;;;9.40;99.90;;;;;;5015290;28;20428;-73
2022/11/29 12:01:36;;;;;;;14.30;12.80;;;9.50;99.90;;;;;;5021875;28;20431;-73
2022/11/29 12:04:10;;;;;;;15.23;12.50;;;9.40;99.90;;;;;;5034655;28;20411;-73
2022/11/29 12:06:47;;;;;;;14.10;12.60;;;9.40;99.90;;;;;;5035954;28;20504;-73
2022/11/29 12:09:23;;;;;;;13.90;12.50;;;9.40;99.90;;;;;;5035858;28;20477;-73
2022/11/29 12:12:14;;;;;;;13.83;12.43;;;9.40;99.90;;;;;;5036001;28;20534;-73
2022/11/29 12:15:15;;;;;;;12.90;11.63;;;9.30;99.90;;;;;;5037403;28;20387;-73
2022/11/29 12:17:49;;;;;;;12.50;11.20;;;9.20;99.90;;;;;;5035977;28;20433;-73
2022/11/29 12:20:24;;;;;;;11.80;10.63;;;9.20;99.90;;;;;;5035722;28;20403;-73
2022/11/29 12:23:12;;;;;;;12.93;11.67;;;9.00;99.90;;;;;;5035556;28;20459;-73
2022/11/29 12:25:44;;;;;;;13.07;11.87;;;9.10;99.90;;;;;;5036394;28;20398;-73
2022/11/29 12:28:12;;;;;;;11.70;10.10;;;9.40;99.90;;;;;;5035712;28;20449;-73
2022/11/29 12:30:54;;;;;;;10.40;9.40;;;9.40;99.90;;;;;;5035558;28;20980;-73
2022/11/29 12:33:19;;;;;;;10.40;9.37;;;9.40;99.90;;;;;;5035983;28;20379;-75
2022/11/29 12:36:20;;;;;;;10.50;9.00;;;9.30;99.90;;;;;;5035151;28;20414;-74
2022/11/29 12:39:07;;;;;;;10.23;9.27;;;9.30;99.90;;;;;;5014372;28;20195;-74
2022/11/29 12:41:36;;;;;;;10.50;9.50;;;9.20;99.90;;;;;;5015802;28;20393;-75
2022/11/29 12:44:14;;;;;;;9.30;8.50;;;9.00;99.90;;;;;;5015825;28;20407;-74
2022/11/29 12:46:44;;;;;;;10.33;9.43;;;9.20;99.90;;;;;;5015137;28;20405;-74
2022/11/29 12:49:33;;;;;;;9.03;8.23;;;9.10;99.90;;;;;;5015073;28;20389;-74
2022/11/29 12:52:01;;;;;;;10.43;9.40;;;9.00;99.90;;;;;;5014669;28;20559;-74
2022/11/29 12:54:45;;;;;;;10.00;9.20;;;9.20;99.90;;;;;;4997267;28;20423;-74
2022/11/29 12:57:17;;;;;;;9.80;8.90;;;9.30;99.90;;;;;;5014490;28;20477;-74
2022/11/29 13:00:13;;;;;;;10.53;9.60;;;9.20;99.90;;;;;;5014809;28;20395;-74
2022/11/29 13:03:00;;;;;;;12.20;10.90;;;9.30;99.90;;;;;;5015063;28;20450;-74
2022/11/29 13:05:38;;;;;;;16.23;12.93;;;9.40;99.90;;;;;;5017847;28;20407;-74
2022/11/29 13:08:19;;;;;;;10.17;9.27;;;9.40;99.90;;;;;;5013579;28;20442;-75
2022/11/29 13:10:44;;;;;;;11.20;10.20;;;9.30;99.90;;;;;;5015909;28;20407;-75
2022/11/29 13:13:25;;;;;;;13.20;11.90;;;9.20;99.90;;;;;;5015875;28;20413;-74
2022/11/29 13:16:04;;;;;;;14.40;13.00;;;9.20;99.90;;;;;;5015388;28;20160;-74
2022/11/29 13:18:38;;;;;;;10.93;9.93;;;9.40;99.90;;;;;;5015521;28;20423;-75
2022/11/29 13:21:20;;;;;;;13.03;11.83;;;9.70;99.90;;;;;;5015473;28;20438;-75
2022/11/29 13:23:55;;;;;;;13.27;11.87;;;9.70;99.90;;;;;;5015536;28;20891;-75
2022/11/29 13:26:24;;;;;;;11.30;10.30;;;9.60;99.90;;;;;;5014876;28;20395;-76
2022/11/29 13:28:50;;;;;;;12.10;10.90;;;9.50;99.90;;;;;;5015973;28;20441;-75
2022/11/29 13:31:22;;;;;;;11.77;10.77;;;9.40;99.90;;;;;;5014618;28;20529;-75